Time;durP1;ratioP1;P1;durP2;ratioP2;P2;SDS_P1;SDS_P2;PMS_P1;PMS_P2;Temp;Humidity;BMP_temperature;BMP_pressure;BME280_temperature;BME280_humidity;BME280_pressure;Samples;Min_cycle;Max_cycle;Signal;HPM_P1;HPM_P2
2021/12/04 00:00:47;;;;;;;5.33;4.80;;;7.70;53.20;;;;;;4957354;28;20200;-50
2021/12/04 00:03:14;;;;;;;5.63;4.33;;;7.70;53.40;;;;;;4968884;28;20207;-48
2021/12/04 00:05:44;;;;;;;6.17;4.40;;;7.50;54.00;;;;;;4963190;28;20458;-50
2021/12/04 00:08:09;;;;;;;7.10;4.70;;;7.30;54.60;;;;;;4961756;28;20490;-50
2021/12/04 00:10:35;;;;;;;5.83;4.23;;;7.10;55.40;;;;;;4963520;28;20909;-49
2021/12/04 00:13:00;;;;;;;5.20;3.70;;;7.20;55.70;;;;;;4964736;28;20741;-49
2021/12/04 00:15:26;;;;;;;4.70;4.30;;;7.40;55.20;;;;;;4962702;28;20274;-49
2021/12/04 00:17:52;;;;;;;3.53;3.23;;;7.30;54.40;;;;;;4965624;28;20191;-48
2021/12/04 00:20:18;;;;;;;8.20;5.00;;;7.40;54.00;;;;;;4962438;28;20207;-49
2021/12/04 00:22:43;;;;;;;4.90;4.00;;;7.40;53.90;;;;;;4967818;28;20209;-48
2021/12/04 00:25:09;;;;;;;3.90;3.60;;;7.30;53.70;;;;;;4961811;28;20195;-49
2021/12/04 00:27:36;;;;;;;4.17;3.77;;;7.20;54.20;;;;;;4963326;28;20278;-50
2021/12/04 00:30:03;;;;;;;5.30;4.20;;;7.20;54.30;;;;;;4959592;28;20532;-48
2021/12/04 00:32:33;;;;;;;5.17;3.77;;;7.40;54.40;;;;;;4960654;28;20498;-48
2021/12/04 00:36:03;;;;;;;4.27;3.87;;;7.60;54.50;;;;;;4960871;28;20879;-51
2021/12/04 00:51:17;;;;;;;4.50;3.30;;;8.00;52.70;;;;;;4966775;28;20819;-48
2021/12/04 00:53:43;;;;;;;5.33;3.67;;;7.90;52.30;;;;;;4971010;28;20497;-48
2021/12/04 00:56:08;;;;;;;3.90;3.37;;;7.70;53.10;;;;;;4966971;28;20454;-49
2021/12/04 00:58:34;;;;;;;6.97;3.70;;;7.80;53.40;;;;;;4962083;28;20187;-48
2021/12/04 01:01:00;;;;;;;5.27;3.83;;;7.80;53.30;;;;;;4966319;28;20261;-53
2021/12/04 01:03:25;;;;;;;5.20;4.50;;;8.00;53.00;;;;;;4968132;28;20226;-48
2021/12/04 01:05:51;;;;;;;5.10;4.37;;;7.90;53.20;;;;;;4966443;28;20192;-49
2021/12/04 01:08:17;;;;;;;5.53;5.00;;;8.00;53.60;;;;;;4968475;28;20253;-49
2021/12/04 01:10:44;;;;;;;5.70;4.57;;;8.10;53.80;;;;;;4965192;28;20466;-48
2021/12/04 01:13:12;;;;;;;5.07;4.27;;;8.10;53.40;;;;;;4964615;28;20242;-50
2021/12/04 01:15:44;;;;;;;4.67;3.33;;;8.10;53.90;;;;;;4971688;28;20554;-50
2021/12/04 01:18:11;;;;;;;6.10;3.93;;;8.10;54.10;;;;;;4965587;28;20443;-48
2021/12/04 01:20:39;;;;;;;5.80;4.30;;;8.10;54.30;;;;;;4967007;28;22266;-48
2021/12/04 01:23:05;;;;;;;6.80;3.87;;;8.20;54.20;;;;;;4965923;28;20585;-50
2021/12/04 01:25:30;;;;;;;5.23;4.40;;;8.30;54.50;;;;;;4970344;28;20920;-52
2021/12/04 01:27:56;;;;;;;7.50;4.53;;;8.30;54.20;;;;;;4971383;28;20547;-52
2021/12/04 01:30:22;;;;;;;4.67;4.00;;;8.10;55.20;;;;;;4964982;28;20655;-48
2021/12/04 01:32:47;;;;;;;5.03;4.30;;;7.90;55.20;;;;;;4964586;28;20753;-49
2021/12/04 01:35:13;;;;;;;6.20;4.97;;;7.70;56.00;;;;;;4970727;28;20196;-48
2021/12/04 01:37:38;;;;;;;4.40;4.00;;;7.60;56.90;;;;;;4967043;28;20601;-48
2021/12/04 01:40:05;;;;;;;8.03;4.60;;;7.40;57.10;;;;;;4968098;28;20199;-48
2021/12/04 01:42:36;;;;;;;5.90;4.80;;;7.20;58.00;;;;;;4972869;28;20209;-48
2021/12/04 01:45:05;;;;;;;5.97;4.60;;;7.20;58.60;;;;;;4964681;28;20805;-49
2021/12/04 01:47:31;;;;;;;6.00;4.20;;;7.10;58.70;;;;;;4970033;28;20455;-48
2021/12/04 01:49:59;;;;;;;4.43;3.70;;;6.90;59.30;;;;;;4967251;28;20457;-48
2021/12/04 01:52:24;;;;;;;5.10;3.63;;;6.90;59.20;;;;;;4969771;28;20230;-49
2021/12/04 01:54:50;;;;;;;4.23;3.57;;;7.10;59.30;;;;;;4966712;28;20478;-48
2021/12/04 01:57:19;;;;;;;3.83;3.40;;;7.00;58.90;;;;;;4967472;28;20191;-49
2021/12/04 01:59:45;;;;;;;4.43;3.40;;;7.00;59.40;;;;;;4964165;28;20282;-49
2021/12/04 02:02:11;;;;;;;4.47;3.30;;;7.30;59.20;;;;;;4967442;28;20466;-49
2021/12/04 02:04:37;;;;;;;3.53;3.17;;;7.40;59.10;;;;;;4962937;28;20455;-48
2021/12/04 02:07:04;;;;;;;5.60;3.87;;;7.50;58.80;;;;;;4963399;28;20779;-49
2021/12/04 02:09:34;;;;;;;3.90;3.60;;;7.60;58.90;;;;;;4961784;28;20239;-49
2021/12/04 02:12:03;;;;;;;3.90;3.60;;;7.50;58.90;;;;;;4962869;28;20451;-48
2021/12/04 02:14:33;;;;;;;4.33;3.60;;;7.20;60.00;;;;;;4968988;28;20954;-49
2021/12/04 02:17:02;;;;;;;5.30;4.00;;;7.10;60.30;;;;;;4966034;28;20454;-48
2021/12/04 02:19:28;;;;;;;3.67;3.37;;;7.10;61.20;;;;;;4966939;28;20454;-49
2021/12/04 02:21:54;;;;;;;4.30;3.90;;;7.00;61.70;;;;;;4964432;28;20443;-49
2021/12/04 02:24:20;;;;;;;4.73;4.07;;;7.10;61.70;;;;;;4964902;28;20463;-48
2021/12/04 02:26:49;;;;;;;3.80;3.10;;;7.20;61.50;;;;;;4968585;28;20195;-49
2021/12/04 02:29:15;;;;;;;4.00;3.60;;;7.10;62.80;;;;;;4963582;28;20566;-48
2021/12/04 02:31:46;;;;;;;4.10;3.70;;;7.00;63.40;;;;;;4967795;28;20450;-49
2021/12/04 02:34:19;;;;;;;4.93;3.53;;;6.80;63.50;;;;;;4964465;28;20235;-49
2021/12/04 02:36:45;;;;;;;4.57;3.37;;;7.00;63.90;;;;;;4966074;28;20806;-48
2021/12/04 02:39:22;;;;;;;7.73;3.90;;;7.10;64.00;;;;;;4960357;28;20487;-49
2021/12/04 02:41:47;;;;;;;5.77;4.40;;;6.90;64.50;;;;;;4960515;28;20218;-52
2021/12/04 02:44:13;;;;;;;5.10;4.57;;;6.90;65.00;;;;;;4965081;28;20451;-48
2021/12/04 02:46:38;;;;;;;6.37;3.90;;;7.00;65.20;;;;;;4962847;28;20199;-50
2021/12/04 02:49:06;;;;;;;6.20;3.90;;;7.00;65.20;;;;;;4961026;28;20198;-49
2021/12/04 02:51:31;;;;;;;4.10;3.53;;;7.10;65.10;;;;;;4964842;28;20196;-50
2021/12/04 02:53:58;;;;;;;4.50;3.87;;;6.90;65.30;;;;;;4964619;28;20495;-49
2021/12/04 02:56:25;;;;;;;8.17;4.10;;;7.00;65.40;;;;;;4965480;28;20192;-49
2021/12/04 02:58:54;;;;;;;9.17;4.17;;;6.90;65.60;;;;;;4963731;28;20454;-50
2021/12/04 03:01:20;;;;;;;4.80;4.30;;;6.80;66.20;;;;;;4965351;28;20458;-49
2021/12/04 03:03:46;;;;;;;5.40;4.50;;;6.80;66.20;;;;;;4967281;28;20461;-49
2021/12/04 03:06:12;;;;;;;5.97;3.80;;;6.90;66.30;;;;;;4960694;28;21408;-48
2021/12/04 03:08:37;;;;;;;5.20;4.60;;;6.90;66.40;;;;;;4961641;28;20525;-50
2021/12/04 03:11:03;;;;;;;5.43;4.60;;;6.80;66.40;;;;;;4959145;28;20200;-48
2021/12/04 03:13:29;;;;;;;5.10;4.40;;;6.70;67.20;;;;;;4959171;28;20254;-50
2021/12/04 03:16:00;;;;;;;5.37;4.10;;;6.80;67.40;;;;;;4962998;28;20322;-49
2021/12/04 03:18:29;;;;;;;5.77;4.40;;;6.80;67.10;;;;;;4963685;28;21024;-49
2021/12/04 03:20:55;;;;;;;5.30;4.27;;;6.90;67.20;;;;;;4962427;28;20857;-52
2021/12/04 03:23:29;;;;;;;12.13;4.60;;;6.90;67.20;;;;;;4962671;28;20931;-52
2021/12/04 03:25:57;;;;;;;5.40;4.03;;;6.70;67.60;;;;;;4964290;28;20581;-50
2021/12/04 03:28:23;;;;;;;6.13;4.70;;;6.60;68.20;;;;;;4965404;28;22013;-52
2021/12/04 03:31:02;;;;;;;7.17;4.20;;;6.70;68.10;;;;;;4965572;28;20534;-50
2021/12/04 03:41:22;;;;;;;7.63;5.60;;;6.20;70.10;;;;;;4963055;28;20616;-51
2021/12/04 03:43:47;;;;;;;5.90;5.27;;;6.10;70.40;;;;;;4965492;28;20448;-50
2021/12/04 03:46:15;;;;;;;6.57;5.67;;;6.00;71.50;;;;;;4964619;28;20751;-48
2021/12/04 03:51:07;;;;;;;7.93;5.37;;;6.10;71.50;;;;;;4967143;28;20927;-52
2021/12/04 03:53:33;;;;;;;7.40;4.83;;;6.30;70.90;;;;;;4965558;28;20513;-49
2021/12/04 03:55:58;;;;;;;9.13;5.77;;;6.30;70.20;;;;;;4964944;28;20263;-50
2021/12/04 03:58:24;;;;;;;5.43;4.93;;;6.30;70.70;;;;;;4964330;28;20188;-48
2021/12/04 04:00:51;;;;;;;6.57;4.90;;;6.30;70.00;;;;;;4962353;28;20234;-53
2021/12/04 04:03:17;;;;;;;5.57;4.20;;;6.20;70.70;;;;;;4963939;28;20443;-51
2021/12/04 04:05:43;;;;;;;5.63;4.83;;;6.20;71.60;;;;;;4961444;28;20479;-48
2021/12/04 04:08:11;;;;;;;6.07;4.90;;;6.20;71.50;;;;;;4965415;28;20509;-50
2021/12/04 04:10:37;;;;;;;6.37;4.83;;;6.00;71.80;;;;;;4960572;28;20208;-49
2021/12/04 04:13:03;;;;;;;5.80;5.13;;;6.20;71.80;;;;;;4963846;28;20485;-49
2021/12/04 04:15:28;;;;;;;4.37;3.97;;;6.50;71.10;;;;;;4959271;28;20199;-51
2021/12/04 04:17:54;;;;;;;4.63;4.23;;;6.30;70.90;;;;;;4960810;28;20183;-49
2021/12/04 04:20:21;;;;;;;6.20;4.23;;;6.20;71.60;;;;;;4964589;28;20674;-48
2021/12/04 04:22:49;;;;;;;6.30;4.70;;;6.40;71.40;;;;;;4961715;28;20183;-50
2021/12/04 04:25:17;;;;;;;7.50;4.77;;;6.50;71.30;;;;;;4962027;28;20513;-53
2021/12/04 04:27:43;;;;;;;7.20;4.80;;;6.70;71.10;;;;;;4963477;28;20470;-53
2021/12/04 04:30:13;;;;;;;4.67;4.27;;;6.70;70.60;;;;;;4961685;28;20442;-49
2021/12/04 04:32:39;;;;;;;4.97;4.20;;;6.80;70.30;;;;;;4960329;28;20502;-50
2021/12/04 04:35:11;;;;;;;4.60;4.10;;;6.80;69.80;;;;;;4962822;28;20446;-50
2021/12/04 04:37:56;;;;;;;6.77;4.90;;;6.70;70.00;;;;;;4961974;28;20447;-51
2021/12/04 05:13:10;;;;;;;4.80;4.30;;;7.00;69.80;;;;;;4964172;28;20525;-54
2021/12/04 05:20:48;;;;;;;6.10;4.87;;;7.10;70.20;;;;;;4959332;28;20443;-50
2021/12/04 05:23:14;;;;;;;5.43;4.30;;;7.20;69.50;;;;;;4968181;28;20458;-48
2021/12/04 05:25:40;;;;;;;5.93;4.73;;;7.20;69.80;;;;;;4968053;28;20958;-48
2021/12/04 05:28:07;;;;;;;5.10;4.60;;;7.30;69.40;;;;;;4965506;28;20202;-49
2021/12/04 05:30:33;;;;;;;5.43;3.83;;;7.40;68.90;;;;;;4962709;28;20498;-51
2021/12/04 05:32:59;;;;;;;5.80;4.33;;;7.50;69.00;;;;;;4968036;28;20494;-49
2021/12/04 05:35:26;;;;;;;5.53;4.20;;;7.50;68.50;;;;;;4962011;28;20459;-49
2021/12/04 05:37:52;;;;;;;5.60;4.20;;;7.40;68.60;;;;;;4964484;28;20454;-50
2021/12/04 05:40:17;;;;;;;5.67;4.37;;;7.40;68.90;;;;;;4967693;28;20443;-49
2021/12/04 05:42:45;;;;;;;4.83;4.43;;;7.20;69.00;;;;;;4966600;28;20485;-48
2021/12/04 05:45:20;;;;;;;6.40;4.40;;;6.90;70.20;;;;;;4965691;28;20200;-50
2021/12/04 05:48:00;;;;;;;4.17;3.80;;;6.70;71.40;;;;;;4964474;28;20439;-49
2021/12/04 05:50:59;;;;;;;5.63;4.17;;;6.90;71.30;;;;;;4970272;28;20447;-49
2021/12/04 05:53:39;;;;;;;5.43;3.93;;;7.00;71.00;;;;;;4963098;28;20533;-50
2021/12/04 05:56:05;;;;;;;5.13;4.30;;;6.80;71.40;;;;;;4967079;28;20459;-48
2021/12/04 05:58:33;;;;;;;7.07;4.80;;;7.00;71.30;;;;;;4963809;28;20439;-50
2021/12/04 06:01:03;;;;;;;5.90;4.90;;;7.10;70.80;;;;;;4964920;28;20967;-48
2021/12/04 06:03:29;;;;;;;5.30;4.80;;;7.10;70.50;;;;;;4966381;28;21562;-53
2021/12/04 06:05:55;;;;;;;5.50;4.93;;;7.00;70.50;;;;;;4968739;28;20484;-48
2021/12/04 06:08:21;;;;;;;5.77;4.57;;;7.00;71.00;;;;;;4968297;28;20199;-50
2021/12/04 06:10:48;;;;;;;6.70;4.70;;;7.00;71.30;;;;;;4966323;28;20454;-48
2021/12/04 06:13:14;;;;;;;4.57;3.70;;;6.90;71.40;;;;;;4963146;28;20223;-51
2021/12/04 06:15:40;;;;;;;6.27;4.70;;;6.80;71.60;;;;;;4966623;28;20461;-49
2021/12/04 06:18:08;;;;;;;6.63;5.00;;;6.70;72.20;;;;;;4962640;28;20446;-50
2021/12/04 06:23:18;;;;;;;9.03;4.33;;;6.80;75.60;;;;;;4963894;28;20517;-50
2021/12/04 06:25:44;;;;;;;6.40;4.70;;;7.10;74.90;;;;;;4965739;28;20439;-49
2021/12/04 06:28:10;;;;;;;6.73;4.00;;;7.30;73.30;;;;;;4966084;28;20224;-48
2021/12/04 06:30:37;;;;;;;6.77;4.50;;;7.30;72.10;;;;;;4966309;28;20220;-48
2021/12/04 06:33:05;;;;;;;5.00;4.50;;;7.30;72.90;;;;;;4964236;28;20359;-52
2021/12/04 06:35:32;;;;;;;4.77;4.23;;;7.40;72.10;;;;;;4960243;28;20498;-50
2021/12/04 06:37:59;;;;;;;4.90;3.90;;;7.80;71.90;;;;;;4964779;28;20448;-49
2021/12/04 06:40:26;;;;;;;8.57;4.03;;;7.90;70.30;;;;;;4968607;28;20451;-50
2021/12/04 06:42:53;;;;;;;3.60;3.30;;;8.00;69.20;;;;;;4967462;28;20459;-48
2021/12/04 06:45:19;;;;;;;4.27;3.60;;;8.00;69.00;;;;;;4957369;28;20459;-49
2021/12/04 06:47:51;;;;;;;5.47;4.10;;;8.10;69.20;;;;;;4968249;28;20470;-50
2021/12/04 06:50:30;;;;;;;4.07;3.67;;;8.30;68.20;;;;;;4969592;28;20640;-48
2021/12/04 06:52:59;;;;;;;5.10;4.43;;;8.50;67.60;;;;;;4963796;28;20500;-48
2021/12/04 06:55:28;;;;;;;5.20;4.60;;;8.50;67.70;;;;;;4970319;28;20479;-48
2021/12/04 06:57:54;;;;;;;5.00;4.50;;;8.60;68.00;;;;;;4964551;28;20450;-53
2021/12/04 07:00:21;;;;;;;4.63;3.83;;;8.80;66.60;;;;;;4962767;28;20475;-51
2021/12/04 07:02:46;;;;;;;5.93;4.70;;;8.90;65.70;;;;;;4963798;28;20439;-54
2021/12/04 07:05:12;;;;;;;6.50;4.43;;;8.60;65.80;;;;;;4964409;28;20435;-50
2021/12/04 07:07:37;;;;;;;5.17;4.43;;;8.50;66.60;;;;;;4960101;28;20198;-53
2021/12/04 07:10:04;;;;;;;8.63;4.00;;;8.50;67.30;;;;;;4967116;28;20227;-51
2021/12/04 07:12:29;;;;;;;5.13;3.63;;;8.40;67.50;;;;;;4957103;28;20216;-53
2021/12/04 07:14:55;;;;;;;7.20;4.33;;;8.40;68.20;;;;;;4968523;28;20450;-52
2021/12/04 07:17:20;;;;;;;4.10;3.67;;;8.40;68.20;;;;;;4969342;28;20196;-51
2021/12/04 07:19:46;;;;;;;4.10;3.80;;;8.40;68.20;;;;;;4970388;28;20195;-49
2021/12/04 07:22:12;;;;;;;5.37;4.30;;;8.30;68.80;;;;;;4965987;28;20259;-50
2021/12/04 07:24:38;;;;;;;6.70;4.90;;;8.30;69.60;;;;;;4957685;28;20294;-52
2021/12/04 07:27:05;;;;;;;6.50;5.43;;;8.30;69.50;;;;;;4960944;28;20517;-52
2021/12/04 07:29:31;;;;;;;6.03;4.83;;;8.30;69.50;;;;;;4960944;28;20285;-50
2021/12/04 07:31:57;;;;;;;5.07;4.10;;;8.50;69.40;;;;;;4970851;28;20469;-53
2021/12/04 07:34:23;;;;;;;3.73;3.30;;;8.60;68.90;;;;;;4966420;28;20485;-54
2021/12/04 07:36:49;;;;;;;4.70;4.10;;;8.50;69.90;;;;;;4960834;28;20445;-49
2021/12/04 07:39:15;;;;;;;5.63;4.27;;;8.50;70.30;;;;;;4965466;28;20203;-52
2021/12/04 07:41:42;;;;;;;5.70;4.80;;;8.60;70.10;;;;;;4969482;28;20444;-50
2021/12/04 07:44:09;;;;;;;13.10;8.40;;;8.60;70.20;;;;;;4966838;28;20250;-53
2021/12/04 07:46:39;;;;;;;10.30;6.20;;;8.80;70.00;;;;;;4971647;28;20961;-53
2021/12/04 07:49:05;;;;;;;11.90;7.53;;;9.00;69.20;;;;;;4956604;28;20785;-50
2021/12/04 07:51:31;;;;;;;10.53;7.80;;;9.00;68.70;;;;;;4953910;28;20499;-53
2021/12/04 07:53:57;;;;;;;6.43;4.90;;;9.00;68.70;;;;;;4953293;28;20827;-48
2021/12/04 07:56:23;;;;;;;8.47;5.83;;;8.90;69.50;;;;;;4958599;28;20427;-50
2021/12/04 07:58:49;;;;;;;16.20;10.40;;;8.80;69.90;;;;;;4966879;28;20482;-49
2021/12/04 08:01:15;;;;;;;15.67;9.70;;;8.70;70.00;;;;;;4972682;28;20203;-54
2021/12/04 08:03:41;;;;;;;14.50;9.27;;;8.90;70.00;;;;;;4972826;28;20469;-49
2021/12/04 08:06:07;;;;;;;5.93;4.73;;;9.10;69.20;;;;;;4972368;28;20438;-48
2021/12/04 08:08:33;;;;;;;12.50;7.90;;;9.20;68.80;;;;;;4956603;28;20539;-54
2021/12/04 08:10:59;;;;;;;6.70;5.17;;;9.30;68.70;;;;;;4953326;28;20453;-49
2021/12/04 08:13:25;;;;;;;12.90;7.80;;;9.30;68.60;;;;;;4953456;28;20491;-49
2021/12/04 08:15:51;;;;;;;12.63;8.70;;;9.30;68.90;;;;;;4953201;28;20507;-49
2021/12/04 08:18:17;;;;;;;23.07;14.33;;;9.40;68.50;;;;;;4969154;28;20447;-49
2021/12/04 08:20:42;;;;;;;6.17;5.43;;;9.50;68.10;;;;;;4972264;28;20192;-49
2021/12/04 08:23:08;;;;;;;5.67;4.00;;;9.50;68.50;;;;;;4971253;28;20208;-50
2021/12/04 08:25:34;;;;;;;5.07;4.50;;;9.50;68.90;;;;;;4953061;28;20283;-54
2021/12/04 08:28:01;;;;;;;4.80;4.30;;;9.50;68.80;;;;;;4960707;28;20572;-50
2021/12/04 08:30:29;;;;;;;3.90;3.50;;;9.60;68.80;;;;;;4972348;28;20567;-48
2021/12/04 08:32:56;;;;;;;4.70;3.87;;;9.50;69.60;;;;;;4972752;28;20505;-49
2021/12/04 08:35:25;;;;;;;2.83;2.50;;;9.30;70.10;;;;;;4972127;28;20439;-49
2021/12/04 08:37:58;;;;;;;3.30;2.93;;;9.40;70.40;;;;;;4972153;28;20427;-51
2021/12/04 08:40:25;;;;;;;3.10;2.80;;;9.50;71.00;;;;;;4967736;28;20470;-48
2021/12/04 08:42:50;;;;;;;3.07;2.77;;;9.50;70.80;;;;;;4972898;28;20430;-48
2021/12/04 08:45:17;;;;;;;2.93;2.63;;;9.50;71.00;;;;;;4971973;28;20447;-49
2021/12/04 08:47:43;;;;;;;2.00;1.90;;;9.70;71.00;;;;;;4972343;28;20294;-48
2021/12/04 08:50:12;;;;;;;3.13;2.53;;;9.90;70.50;;;;;;4961618;28;20482;-49
2021/12/04 08:52:39;;;;;;;3.33;2.80;;;10.00;69.10;;;;;;4972471;28;20544;-50
2021/12/04 08:55:06;;;;;;;3.30;3.00;;;10.10;69.00;;;;;;4972254;28;20501;-49
2021/12/04 08:57:32;;;;;;;3.50;3.20;;;10.10;68.90;;;;;;4973514;28;20522;-49
2021/12/04 08:59:58;;;;;;;3.23;2.93;;;10.10;68.60;;;;;;4975471;28;20557;-49
2021/12/04 09:02:25;;;;;;;3.20;2.90;;;10.30;68.30;;;;;;4976206;28;20335;-48
2021/12/04 09:04:54;;;;;;;3.47;3.17;;;10.40;68.10;;;;;;4975708;28;20422;-49
2021/12/04 09:07:20;;;;;;;3.27;2.97;;;10.50;67.90;;;;;;4965201;28;20440;-51
2021/12/04 09:09:46;;;;;;;5.03;4.53;;;10.50;68.10;;;;;;4960973;28;20479;-48
2021/12/04 09:12:13;;;;;;;2.47;2.27;;;10.60;67.80;;;;;;4974948;28;20584;-48
2021/12/04 09:14:42;;;;;;;1.67;1.40;;;10.50;68.30;;;;;;4975335;28;20849;-49
2021/12/04 09:17:11;;;;;;;1.60;1.50;;;10.60;68.90;;;;;;4974542;28;20867;-50
2021/12/04 09:19:37;;;;;;;1.77;1.63;;;10.70;69.10;;;;;;4975243;28;20430;-47
2021/12/04 09:22:06;;;;;;;5.47;2.43;;;10.90;68.60;;;;;;4969332;28;20430;-47
2021/12/04 09:24:40;;;;;;;3.17;2.70;;;10.90;68.20;;;;;;4972305;28;20454;-47
2021/12/04 09:32:34;;;;;;;3.20;2.10;;;11.20;67.70;;;;;;4970290;28;20989;-48
2021/12/04 09:40:27;;;;;;;3.17;2.80;;;11.00;68.80;;;;;;4965643;28;21919;-48
2021/12/04 10:13:18;;;;;;;7.80;5.20;;;11.40;67.60;;;;;;4968072;28;20589;-47
2021/12/04 10:34:49;;;;;;;4.90;4.47;;;11.50;69.10;;;;;;4959115;28;20480;-48
2021/12/04 10:37:23;;;;;;;5.40;4.60;;;11.60;68.90;;;;;;4967448;28;20435;-48
2021/12/04 10:39:49;;;;;;;5.27;4.77;;;11.70;69.20;;;;;;4962774;28;20448;-47
2021/12/04 10:42:19;;;;;;;5.90;4.23;;;11.70;69.50;;;;;;4967172;28;20431;-48
2021/12/04 10:44:51;;;;;;;4.20;3.80;;;11.80;69.70;;;;;;4971603;28;20438;-46
2021/12/04 10:47:22;;;;;;;4.87;4.40;;;11.70;70.00;;;;;;4961248;28;20568;-46
2021/12/04 10:55:18;;;;;;;5.17;4.67;;;11.80;70.90;;;;;;4958298;28;20474;-48
2021/12/04 11:03:30;;;;;;;6.53;5.30;;;12.10;70.40;;;;;;4969014;28;20449;-46
2021/12/04 11:20:01;;;;;;;5.83;3.10;;;11.90;71.90;;;;;;4966985;28;20523;-47
2021/12/04 11:43:56;;;;;;;2.90;2.40;;;12.70;70.80;;;;;;4963492;28;20445;-48
2021/12/04 11:46:30;;;;;;;4.47;4.07;;;13.00;70.20;;;;;;4971419;28;20464;-47
2021/12/04 11:48:59;;;;;;;10.07;7.10;;;13.10;69.50;;;;;;4966956;28;20534;-51
2021/12/04 11:51:27;;;;;;;6.10;4.10;;;13.30;69.10;;;;;;4962210;28;20465;-47
2021/12/04 11:53:55;;;;;;;4.70;3.80;;;13.20;68.90;;;;;;4972186;28;20541;-48
2021/12/04 11:56:24;;;;;;;4.53;2.70;;;13.30;69.10;;;;;;4957520;28;20439;-48
2021/12/04 11:58:51;;;;;;;5.47;4.83;;;13.30;68.60;;;;;;4964424;28;20446;-48
2021/12/04 12:01:31;;;;;;;8.03;6.93;;;13.40;68.50;;;;;;4957038;28;20436;-47
2021/12/04 12:04:01;;;;;;;6.67;5.00;;;13.30;68.40;;;;;;4965141;28;20544;-48
2021/12/04 12:06:39;;;;;;;7.27;5.60;;;13.10;68.30;;;;;;4965402;28;20806;-48
2021/12/04 12:09:12;;;;;;;4.27;3.77;;;12.90;69.10;;;;;;4970255;28;20811;-47
2021/12/04 12:11:54;;;;;;;7.10;4.57;;;12.90;69.60;;;;;;4969537;28;20458;-49
2021/12/04 12:14:34;;;;;;;6.73;6.03;;;13.00;70.00;;;;;;4964981;28;20491;-47
2021/12/04 12:17:00;;;;;;;3.43;3.00;;;13.10;69.80;;;;;;4960310;28;20458;-47
2021/12/04 12:19:31;;;;;;;6.20;4.87;;;12.80;69.70;;;;;;4962600;28;20888;-46
2021/12/04 12:36:10;;;;;;;4.90;4.27;;;12.90;71.20;;;;;;4960595;28;20454;-47
2021/12/04 12:38:55;;;;;;;4.10;3.70;;;13.20;70.50;;;;;;4966691;28;20443;-47
2021/12/04 12:41:41;;;;;;;5.83;4.30;;;13.40;69.90;;;;;;4967482;28;20446;-47
2021/12/04 12:44:09;;;;;;;4.77;4.17;;;13.30;70.10;;;;;;4963055;28;20451;-49
2021/12/04 12:46:45;;;;;;;3.73;3.27;;;13.30;70.70;;;;;;4971054;28;20477;-47
2021/12/04 12:49:34;;;;;;;3.23;2.93;;;13.40;70.40;;;;;;4970138;28;20473;-49
2021/12/04 12:52:23;;;;;;;1.97;1.67;;;13.70;69.60;;;;;;4970793;28;20434;-47
2021/12/04 12:55:09;;;;;;;2.10;1.37;;;13.80;69.70;;;;;;4979914;28;20528;-50
2021/12/04 12:57:41;;;;;;;1.20;0.83;;;13.80;69.10;;;;;;4965406;28;20549;-47
2021/12/04 13:14:22;;;;;;;0.73;0.67;;;13.70;70.10;;;;;;4966159;28;20513;-48
2021/12/04 13:17:00;;;;;;;1.33;0.80;;;13.60;70.20;;;;;;4971184;28;20469;-48
2021/12/04 13:19:26;;;;;;;1.07;0.73;;;13.70;70.60;;;;;;4964024;28;21038;-49
2021/12/04 13:21:56;;;;;;;0.90;0.60;;;13.70;70.70;;;;;;4973187;28;20799;-47
2021/12/04 13:24:25;;;;;;;0.70;0.70;;;13.60;71.10;;;;;;4971701;28;20793;-48
2021/12/04 13:26:53;;;;;;;1.00;0.80;;;13.70;71.30;;;;;;4968440;28;20454;-47
2021/12/04 13:29:22;;;;;;;0.97;0.90;;;13.60;70.80;;;;;;4967908;28;20439;-47
2021/12/04 13:31:51;;;;;;;6.53;1.20;;;13.40;71.00;;;;;;4962678;28;20446;-47
2021/12/04 13:34:25;;;;;;;0.87;0.87;;;13.50;71.20;;;;;;4973068;28;20490;-48
2021/12/04 13:36:53;;;;;;;0.90;0.70;;;13.40;71.10;;;;;;4974959;28;20761;-47
2021/12/04 13:39:19;;;;;;;0.90;0.80;;;13.40;71.20;;;;;;4965660;28;20432;-48
2021/12/04 13:41:46;;;;;;;0.80;0.80;;;13.30;71.10;;;;;;4955909;28;20831;-48
2021/12/04 13:44:14;;;;;;;0.80;0.80;;;13.30;71.10;;;;;;4955922;28;20434;-47
2021/12/04 13:46:52;;;;;;;1.00;0.90;;;13.30;71.20;;;;;;4955999;28;20556;-48
2021/12/04 13:49:31;;;;;;;1.00;0.90;;;13.30;71.10;;;;;;4954140;28;20500;-48
2021/12/04 13:52:00;;;;;;;0.70;0.70;;;13.40;70.60;;;;;;4969553;28;20628;-47
2021/12/04 13:54:29;;;;;;;1.50;0.70;;;13.40;70.30;;;;;;4970433;28;20494;-48
2021/12/04 13:56:55;;;;;;;0.60;0.60;;;13.40;70.70;;;;;;4969931;28;20453;-47
2021/12/04 13:59:26;;;;;;;1.27;0.70;;;13.30;71.00;;;;;;4971780;28;20517;-47
2021/12/04 14:01:53;;;;;;;1.67;1.07;;;13.40;71.10;;;;;;4971412;28;20743;-49
2021/12/04 14:04:19;;;;;;;1.00;0.80;;;13.30;70.50;;;;;;4973317;28;20430;-47
2021/12/04 14:06:54;;;;;;;1.07;1.00;;;13.20;70.70;;;;;;4969041;28;20439;-48
2021/12/04 14:09:21;;;;;;;1.77;0.67;;;13.40;70.20;;;;;;4972252;28;20463;-47
2021/12/04 14:11:48;;;;;;;0.73;0.73;;;13.40;70.10;;;;;;4973756;28;20431;-48
2021/12/04 14:14:28;;;;;;;1.83;0.60;;;13.30;70.80;;;;;;4972529;28;20485;-47
2021/12/04 14:17:01;;;;;;;1.03;0.87;;;13.30;70.90;;;;;;4971571;28;20531;-47
2021/12/04 14:19:29;;;;;;;0.80;0.80;;;13.00;71.90;;;;;;4971397;28;20526;-47
2021/12/04 14:21:59;;;;;;;0.83;0.83;;;13.00;72.40;;;;;;4972946;28;20435;-47
2021/12/04 14:24:32;;;;;;;1.60;1.00;;;13.30;72.20;;;;;;4967668;28;20450;-47
2021/12/04 14:27:00;;;;;;;1.40;1.10;;;13.30;72.80;;;;;;4974060;28;20958;-48
2021/12/04 14:29:31;;;;;;;1.50;0.70;;;13.30;72.10;;;;;;4971210;28;20537;-48
2021/12/04 14:31:57;;;;;;;2.30;0.90;;;13.30;71.90;;;;;;4963012;28;20947;-50
2021/12/04 14:34:25;;;;;;;2.13;0.80;;;13.20;72.40;;;;;;4967102;28;20486;-49
2021/12/04 14:37:04;;;;;;;1.10;1.03;;;13.30;72.40;;;;;;4960059;28;20195;-47
2021/12/04 14:39:30;;;;;;;1.87;0.97;;;13.30;72.30;;;;;;4969717;28;21008;-47
2021/12/04 14:41:56;;;;;;;3.43;1.17;;;13.00;73.00;;;;;;4967271;28;20863;-52
2021/12/04 14:44:22;;;;;;;1.90;0.87;;;13.10;73.10;;;;;;4967360;28;20442;-47
2021/12/04 14:46:48;;;;;;;0.93;0.90;;;13.30;72.70;;;;;;4967403;28;20199;-49
2021/12/04 14:49:14;;;;;;;2.23;1.03;;;13.30;72.40;;;;;;4962357;28;21462;-50
2021/12/04 14:51:40;;;;;;;1.50;1.37;;;13.30;72.40;;;;;;4969283;28;20454;-52
2021/12/04 14:54:06;;;;;;;1.07;1.00;;;13.10;72.30;;;;;;4967947;28;20498;-49
2021/12/04 14:56:32;;;;;;;1.67;1.07;;;13.00;72.80;;;;;;4964523;28;20435;-51
2021/12/04 14:58:58;;;;;;;2.40;1.00;;;12.70;73.70;;;;;;4964804;28;20550;-50
2021/12/04 15:01:30;;;;;;;0.97;0.97;;;12.50;74.20;;;;;;4971816;28;20457;-49
2021/12/04 15:04:00;;;;;;;1.90;1.30;;;12.50;74.40;;;;;;4967353;28;20451;-50
2021/12/04 15:06:28;;;;;;;1.70;1.07;;;12.70;74.60;;;;;;4963387;28;20438;-48
2021/12/04 15:09:13;;;;;;;1.77;0.80;;;12.70;74.10;;;;;;4965919;28;20444;-49
2021/12/04 15:11:45;;;;;;;0.83;0.83;;;12.70;74.00;;;;;;4963788;28;20450;-47
2021/12/04 15:14:19;;;;;;;2.20;1.50;;;12.70;74.40;;;;;;4960808;28;20494;-49
2021/12/04 15:16:50;;;;;;;2.67;2.00;;;12.90;74.00;;;;;;4960194;28;20764;-50
2021/12/04 15:19:28;;;;;;;4.03;1.40;;;13.10;73.00;;;;;;4965679;28;21298;-47
2021/12/04 15:21:58;;;;;;;1.30;1.10;;;13.00;72.90;;;;;;4962718;28;20827;-50
2021/12/04 15:24:28;;;;;;;1.23;0.90;;;13.10;72.40;;;;;;4963529;28;20450;-48
2021/12/04 15:27:01;;;;;;;3.23;1.10;;;13.10;72.10;;;;;;4967992;28;20443;-47
2021/12/04 15:29:33;;;;;;;1.23;1.13;;;13.20;72.00;;;;;;4962725;28;20509;-50
2021/12/04 15:32:01;;;;;;;1.90;1.33;;;13.10;71.90;;;;;;4965574;28;20451;-48
2021/12/04 15:34:42;;;;;;;1.17;0.90;;;13.10;71.80;;;;;;4962981;28;20530;-49
2021/12/04 15:37:08;;;;;;;4.20;1.10;;;13.10;71.40;;;;;;4961423;28;20446;-49
2021/12/04 15:39:41;;;;;;;1.10;1.00;;;13.20;71.50;;;;;;4966184;28;20935;-47
2021/12/04 15:42:29;;;;;;;1.30;1.10;;;13.20;71.10;;;;;;4966502;28;20447;-49
2021/12/04 15:45:23;;;;;;;2.33;1.20;;;13.10;71.30;;;;;;4964701;28;20442;-51
2021/12/04 15:48:05;;;;;;;2.10;0.77;;;13.20;71.10;;;;;;4966131;28;20450;-48
2021/12/04 15:53:15;;;;;;;1.07;0.97;;;13.10;71.00;;;;;;4961693;28;20533;-49
2021/12/04 15:55:45;;;;;;;1.00;0.90;;;13.20;70.80;;;;;;4962673;28;20483;-48
2021/12/04 15:58:17;;;;;;;1.10;1.00;;;13.30;70.40;;;;;;4962105;28;20965;-50
2021/12/04 16:01:05;;;;;;;1.33;1.23;;;13.30;70.00;;;;;;4964407;28;20462;-47
2021/12/04 16:03:37;;;;;;;1.80;1.40;;;13.20;70.00;;;;;;4970118;28;20848;-48
2021/12/04 16:06:10;;;;;;;1.37;1.27;;;13.30;70.10;;;;;;4967087;28;20442;-49
2021/12/04 16:08:38;;;;;;;1.97;1.30;;;13.20;70.10;;;;;;4967863;28;20539;-50
2021/12/04 16:11:07;;;;;;;1.30;1.00;;;13.20;70.00;;;;;;4964444;28;20899;-51
2021/12/04 16:13:35;;;;;;;1.10;1.00;;;13.20;70.10;;;;;;4957749;28;21362;-51
2021/12/04 16:16:13;;;;;;;1.47;1.37;;;13.10;70.10;;;;;;4963251;28;20457;-48
2021/12/04 16:18:41;;;;;;;1.30;1.20;;;12.90;70.30;;;;;;4965595;28;20434;-50
2021/12/04 16:21:08;;;;;;;1.50;1.20;;;12.80;71.20;;;;;;4966365;28;20446;-51
2021/12/04 16:23:34;;;;;;;1.17;1.07;;;13.00;70.20;;;;;;4961121;28;20453;-49